createdAt,value
2017-04-19T00:01:08.915Z,20.36
2017-04-19T00:02:18.524Z,20.33
2017-04-19T00:03:28.730Z,20.29
2017-04-19T00:04:38.628Z,20.32
2017-04-19T00:05:48.856Z,20.31
2017-04-19T00:06:58.755Z,20.33
2017-04-19T00:08:08.676Z,20.28
2017-04-19T00:09:18.537Z,20.36
2017-04-19T00:10:28.743Z,20.31
2017-04-19T00:11:38.038Z,20.28
2017-04-19T00:12:48.246Z,20.29
2017-04-19T00:13:58.150Z,20.29
2017-04-19T00:15:08.462Z,20.26
2017-04-19T00:16:18.673Z,20.29
2017-04-19T00:17:28.583Z,20.29
2017-04-19T00:18:38.237Z,20.29
2017-04-19T00:19:48.134Z,20.29
2017-04-19T00:20:58.499Z,20.23
2017-04-19T00:22:08.708Z,20.24
2017-04-19T00:23:18.618Z,20.31
2017-04-19T00:24:28.234Z,20.18
2017-04-19T00:25:38.148Z,20.24
2017-04-19T00:26:48.317Z,20.17
2017-04-19T00:27:58.232Z,20.18
2017-04-19T00:29:08.139Z,20.28
2017-04-19T00:30:18.051Z,20.17
2017-04-19T00:31:27.650Z,20.16
2017-04-19T00:32:37.808Z,20.29
2017-04-19T00:33:47.719Z,20.17
2017-04-19T00:34:57.016Z,20.23
2017-04-19T00:36:06.924Z,20.2
2017-04-19T00:37:16.518Z,20.24
2017-04-19T00:38:26.264Z,20.24
2017-04-19T00:39:35.870Z,20.17
2017-04-19T00:40:46.079Z,20.16
2017-04-19T00:41:55.994Z,20.23
2017-04-19T00:43:05.590Z,20.29
2017-04-19T00:44:15.031Z,20.28
2017-04-19T00:45:24.937Z,20.23
2017-04-19T00:46:34.570Z,20.14
2017-04-19T00:47:44.775Z,20.21
2017-04-19T00:48:54.379Z,20.17
2017-04-19T00:50:04.696Z,20.17
2017-04-19T00:51:14.607Z,20.21
2017-04-19T00:52:24.515Z,20.18
2017-04-19T00:53:34.112Z,20.21
2017-04-19T00:54:44.700Z,20.18
2017-04-19T00:55:54.898Z,20.26
2017-04-19T00:57:04.498Z,20.18
2017-04-19T00:58:14.721Z,20.28
2017-04-19T00:59:24.942Z,20.23
2017-04-19T01:00:35.206Z,20.26
2017-04-19T01:01:45.262Z,20.2
2017-04-19T01:02:55.177Z,20.2
2017-04-19T01:04:04.782Z,20.18
2017-04-19T01:05:14.375Z,20.21
2017-04-19T01:06:24.287Z,20.18
2017-04-19T01:07:34.131Z,20.23
2017-04-19T01:08:44.351Z,20.1
2017-04-19T01:09:54.269Z,20.13
2017-04-19T01:11:04.177Z,20.23
2017-04-19T01:12:14.403Z,20.17
2017-04-19T01:13:24.552Z,20.13
2017-04-19T01:14:34.457Z,20.13
2017-04-19T01:15:44.364Z,20.16
2017-04-19T01:16:54.576Z,20.1
2017-04-19T01:18:04.495Z,20.18
2017-04-19T01:19:14.640Z,20.1
2017-04-19T01:20:24.849Z,20.14
2017-04-19T01:21:34.794Z,20.06
2017-04-19T01:22:45.185Z,20.11
2017-04-19T01:23:55.404Z,20.11
2017-04-19T01:25:06.043Z,20.11
2017-04-19T01:26:15.336Z,20.11
2017-04-19T01:27:25.256Z,20.08
2017-04-19T01:28:35.470Z,20.14
2017-04-19T01:29:45.369Z,20.06
2017-04-19T01:30:55.515Z,20.18
2017-04-19T01:32:05.425Z,20.11
2017-04-19T01:33:15.341Z,20.14
2017-04-19T01:34:25.564Z,20.08
2017-04-19T01:35:35.480Z,20.06
2017-04-19T01:36:45.635Z,20.11
2017-04-19T01:37:55.879Z,20.05
2017-04-19T01:39:05.783Z,20.11
2017-04-19T01:40:15.372Z,20.08
2017-04-19T01:41:24.994Z,20.11
2017-04-19T01:42:35.507Z,20.11
2017-04-19T01:43:44.799Z,20.16
2017-04-19T01:44:55.007Z,20.06
2017-04-19T01:46:04.296Z,20.11
2017-04-19T01:47:14.205Z,20.11
2017-04-19T01:48:24.158Z,20.14
2017-04-19T01:49:34.132Z,20.13
2017-04-19T01:50:43.781Z,20.11
2017-04-19T01:51:53.984Z,20.06
2017-04-19T01:53:04.188Z,20.06
2017-04-19T01:54:14.356Z,20.14
2017-04-19T01:55:23.954Z,20.11
2017-04-19T01:56:33.852Z,20.05
2017-04-19T01:57:43.807Z,20.01
2017-04-19T01:58:53.414Z,20.13
2017-04-19T02:00:03.423Z,20.11
2017-04-19T02:01:13.342Z,20.06
2017-04-19T02:02:23.570Z,20.08
2017-04-19T02:03:33.166Z,20.08
2017-04-19T02:04:43.080Z,20.03
2017-04-19T02:05:53.548Z,20.03
2017-04-19T02:07:03.166Z,20.05
2017-04-19T02:08:13.083Z,19.98
2017-04-19T02:09:22.062Z,20.01
2017-04-19T02:10:32.268Z,20.05
2017-04-19T02:11:41.962Z,19.96
2017-04-19T02:12:52.186Z,19.98
2017-04-19T02:14:02.089Z,20.05
2017-04-19T02:15:11.682Z,19.98
2017-04-19T02:16:21.278Z,19.98
2017-04-19T02:17:31.358Z,20.01
2017-04-19T02:18:41.262Z,20.01
2017-04-19T02:19:51.245Z,20.06
2017-04-19T02:21:01.459Z,20.02
2017-04-19T02:22:11.948Z,19.99
2017-04-19T02:23:22.215Z,19.98
2017-04-19T02:24:32.197Z,19.98
2017-04-19T02:25:42.409Z,19.98
2017-04-19T02:26:52.619Z,20.01
2017-04-19T02:28:02.218Z,20.03
2017-04-19T02:29:12.417Z,19.95
2017-04-19T02:30:22.011Z,20.05
2017-04-19T02:31:32.224Z,19.95
2017-04-19T02:32:41.824Z,19.99
2017-04-19T02:33:52.031Z,20.01
2017-04-19T02:35:02.341Z,20.01
2017-04-19T02:36:11.938Z,19.99
2017-04-19T02:37:21.235Z,19.99
2017-04-19T02:38:31.452Z,19.98
2017-04-19T02:39:41.360Z,19.99
2017-04-19T02:40:51.733Z,20.02
2017-04-19T02:42:01.643Z,19.99
2017-04-19T02:43:11.573Z,19.96
2017-04-19T02:44:21.833Z,20.02
2017-04-19T02:45:32.040Z,20.03
2017-04-19T02:46:41.578Z,19.92
2017-04-19T02:47:51.798Z,19.95
2017-04-19T02:49:02.028Z,19.94
2017-04-19T02:50:12.037Z,19.94
2017-04-19T02:51:22.254Z,19.96
2017-04-19T02:52:33.050Z,19.99
2017-04-19T02:53:42.957Z,20.01
2017-04-19T02:54:53.178Z,19.99
2017-04-19T02:56:03.395Z,19.98
2017-04-19T02:57:13.977Z,19.98
2017-04-19T02:58:24.349Z,20.01
2017-04-19T02:59:34.250Z,19.96
2017-04-19T03:00:44.164Z,19.92
2017-04-19T03:01:54.086Z,20.01
2017-04-19T03:03:03.682Z,19.91
2017-04-19T03:04:13.715Z,19.92
2017-04-19T03:05:23.626Z,19.94
2017-04-19T03:06:33.530Z,19.95
2017-04-19T03:07:43.441Z,19.84
2017-04-19T03:08:53.666Z,19.91
2017-04-19T03:10:03.433Z,19.92
2017-04-19T03:11:13.644Z,19.92
2017-04-19T03:12:23.541Z,19.94
2017-04-19T03:13:33.751Z,19.86
2017-04-19T03:14:43.361Z,19.95
2017-04-19T03:15:54.268Z,19.81
2017-04-19T03:17:04.181Z,19.95
2017-04-19T03:18:14.496Z,19.92
2017-04-19T03:19:24.867Z,19.95
2017-04-19T03:20:35.091Z,19.94
2017-04-19T03:21:45.560Z,19.95
2017-04-19T03:22:55.465Z,19.94
2017-04-19T03:24:05.369Z,19.94
2017-04-19T03:25:15.584Z,19.98
2017-04-19T03:26:25.800Z,19.88
2017-04-19T03:27:35.810Z,19.91
2017-04-19T03:28:45.722Z,19.84
2017-04-19T03:29:55.630Z,19.83
2017-04-19T03:31:05.532Z,19.86
2017-04-19T03:32:15.430Z,19.88
2017-04-19T03:33:25.598Z,19.91
2017-04-19T03:34:35.804Z,19.88
2017-04-19T03:35:45.097Z,19.86
2017-04-19T03:36:54.690Z,19.91
2017-04-19T03:38:04.902Z,19.91
2017-04-19T03:39:15.065Z,19.94
2017-04-19T03:40:24.970Z,19.92
2017-04-19T03:41:34.872Z,19.83
2017-04-19T03:42:44.478Z,19.94
2017-04-19T03:43:54.689Z,19.86
2017-04-19T03:45:04.904Z,19.86
2017-04-19T03:46:15.113Z,19.92
2017-04-19T03:47:25.497Z,19.84
2017-04-19T03:48:35.589Z,19.83
2017-04-19T03:49:45.387Z,19.84
2017-04-19T03:50:55.786Z,19.83
2017-04-19T03:52:05.390Z,19.94
2017-04-19T03:53:14.386Z,19.83
2017-04-19T03:54:23.993Z,19.91
2017-04-19T03:55:33.899Z,19.94
2017-04-19T03:56:44.409Z,19.86
2017-04-19T03:57:54.324Z,19.92
2017-04-19T03:59:04.543Z,19.81
2017-04-19T04:00:14.767Z,19.83
2017-04-19T04:01:24.977Z,19.96
2017-04-19T04:02:35.128Z,19.87
2017-04-19T04:03:45.349Z,19.87
2017-04-19T04:04:55.252Z,19.84
2017-04-19T04:06:04.536Z,19.87
2017-04-19T04:07:14.780Z,19.87
2017-04-19T04:08:25.176Z,19.86
2017-04-19T04:09:35.097Z,19.87
2017-04-19T04:10:45.309Z,19.86
2017-04-19T04:11:55.527Z,19.91
2017-04-19T04:13:05.744Z,19.86
2017-04-19T04:14:16.305Z,19.84
2017-04-19T04:15:26.222Z,19.87
2017-04-19T04:16:36.440Z,19.86
2017-04-19T04:17:46.350Z,19.87
2017-04-19T04:18:56.576Z,19.88
2017-04-19T04:20:07.231Z,19.87
2017-04-19T04:21:16.945Z,19.83
2017-04-19T04:22:26.932Z,19.84
2017-04-19T04:23:36.842Z,19.83
2017-04-19T04:24:47.055Z,19.8
2017-04-19T04:25:57.891Z,19.8
2017-04-19T04:27:07.806Z,19.81
2017-04-19T04:28:18.018Z,19.86
2017-04-19T04:29:27.633Z,19.86
2017-04-19T04:30:37.546Z,19.84
2017-04-19T04:31:47.915Z,19.86
2017-04-19T04:32:57.233Z,19.81
2017-04-19T04:34:06.841Z,19.87
2017-04-19T04:35:16.774Z,19.84
2017-04-19T04:36:26.388Z,19.86
2017-04-19T04:37:36.914Z,19.92
2017-04-19T04:38:47.146Z,19.87
2017-04-19T04:39:56.764Z,19.96
2017-04-19T04:41:06.072Z,20.02
2017-04-19T04:42:16.302Z,20.02
2017-04-19T04:43:26.202Z,20.14
2017-04-19T04:44:36.106Z,20.08
2017-04-19T04:45:46.018Z,20.11
2017-04-19T04:46:55.659Z,20.17
2017-04-19T04:48:05.564Z,20.24
2017-04-19T04:49:15.887Z,20.28
2017-04-19T04:50:26.341Z,20.32
2017-04-19T04:51:36.110Z,20.36
2017-04-19T04:52:45.719Z,20.43
2017-04-19T04:53:55.926Z,20.42
2017-04-19T04:55:06.493Z,20.42
2017-04-19T04:56:16.714Z,20.41
2017-04-19T04:57:26.924Z,20.61
2017-04-19T04:58:36.215Z,20.72
2017-04-19T04:59:44.947Z,20.69
2017-04-19T05:00:55.520Z,20.8
2017-04-19T05:02:05.118Z,20.79
2017-04-19T05:03:14.728Z,20.91
2017-04-19T05:04:24.652Z,20.94
2017-04-19T05:05:34.253Z,20.94
2017-04-19T05:06:44.725Z,20.98
2017-04-19T05:07:54.356Z,21.07
2017-04-19T05:09:04.267Z,21.12
2017-04-19T05:10:14.183Z,21.14
2017-04-19T05:11:23.811Z,21.22
2017-04-19T05:12:34.071Z,21.22
2017-04-19T05:13:43.978Z,21.31
2017-04-19T05:14:54.192Z,21.31
2017-04-19T05:16:03.853Z,21.32
2017-04-19T05:17:13.764Z,21.42
2017-04-19T05:18:24.027Z,21.44
2017-04-19T05:19:33.952Z,21.54
2017-04-19T05:20:44.170Z,21.54
2017-04-19T05:21:54.110Z,21.61
2017-04-19T05:23:04.103Z,21.71
2017-04-19T05:24:14.614Z,21.62
2017-04-19T05:25:24.542Z,21.77
2017-04-19T05:26:34.470Z,21.77
2017-04-19T05:27:44.398Z,21.82
2017-04-19T05:28:54.633Z,21.86
2017-04-19T05:30:05.014Z,21.9
2017-04-19T05:31:14.626Z,21.99
2017-04-19T05:32:24.544Z,22
2017-04-19T05:33:34.168Z,22.09
2017-04-19T05:34:43.797Z,22.31
2017-04-19T05:35:53.645Z,22.54
2017-04-19T05:37:03.862Z,22.85
2017-04-19T05:38:14.085Z,23.25
2017-04-19T05:39:24.000Z,23.75
2017-04-19T05:40:33.905Z,24.03
2017-04-19T05:41:43.666Z,24.32
2017-04-19T05:42:53.888Z,24.78
2017-04-19T05:44:04.103Z,25.06
2017-04-19T05:45:14.016Z,25.38
2017-04-19T05:46:23.928Z,25.72
2017-04-19T05:47:34.085Z,26.01
2017-04-19T05:48:44.001Z,26.35
2017-04-19T05:49:53.603Z,26.67
2017-04-19T05:51:03.498Z,26.84
2017-04-19T05:52:13.873Z,27.19
2017-04-19T05:53:23.840Z,27.43
2017-04-19T05:54:33.759Z,27.72
2017-04-19T05:55:43.679Z,27.97
2017-04-19T05:56:53.899Z,28.12
2017-04-19T05:58:04.119Z,28.37
2017-04-19T05:59:13.979Z,28.51
2017-04-19T06:00:23.939Z,28.78
2017-04-19T06:01:33.587Z,28.98
2017-04-19T06:02:43.489Z,29.02
2017-04-19T06:03:53.088Z,29.04
2017-04-19T06:05:03.722Z,28.89
2017-04-19T06:06:13.654Z,28.59
2017-04-19T06:07:23.901Z,28.22
2017-04-19T06:08:33.818Z,27.84
2017-04-19T06:09:44.093Z,27.51
2017-04-19T06:10:54.263Z,27.29
2017-04-19T06:12:04.477Z,27.09
2017-04-19T06:13:13.763Z,26.81
2017-04-19T06:14:23.714Z,26.52
2017-04-19T06:15:33.624Z,26.33
2017-04-19T06:16:43.632Z,25.91
2017-04-19T06:17:53.846Z,25.75
2017-04-19T06:19:04.078Z,25.55
2017-04-19T06:20:13.751Z,25.36
2017-04-19T06:21:23.671Z,25.33
2017-04-19T06:22:34.202Z,25.14
2017-04-19T06:23:44.004Z,24.95
2017-04-19T06:26:35.917Z,24.78
2017-04-19T06:27:45.467Z,24.53
2017-04-19T06:28:55.690Z,24.47
2017-04-19T06:30:05.608Z,24.28
2017-04-19T06:31:15.525Z,24.3
2017-04-19T06:32:25.459Z,24.2
2017-04-19T06:33:35.673Z,24.05
2017-04-19T06:34:45.315Z,23.87
2017-04-19T06:35:55.231Z,23.91
2017-04-19T06:37:04.844Z,23.83
2017-04-19T06:38:15.123Z,23.73
2017-04-19T06:39:25.754Z,23.61
2017-04-19T06:40:36.081Z,23.57
2017-04-19T06:41:46.298Z,23.42
2017-04-19T06:42:56.540Z,23.35
2017-04-19T06:44:06.463Z,23.31
2017-04-19T06:45:16.167Z,23.15
2017-04-19T06:46:26.089Z,23.2
2017-04-19T06:47:35.696Z,23.05
2017-04-19T06:48:45.944Z,23.01
2017-04-19T06:49:56.180Z,22.97
2017-04-19T06:51:06.725Z,22.88
2017-04-19T06:52:16.854Z,22.82
2017-04-19T06:53:27.045Z,22.68
2017-04-19T06:54:36.965Z,22.73
2017-04-19T06:55:46.879Z,22.58
2017-04-19T06:56:57.399Z,22.57
2017-04-19T06:58:07.022Z,22.57
2017-04-19T06:59:16.621Z,22.57
2017-04-19T07:00:26.539Z,22.42
2017-04-19T07:01:36.793Z,22.46
2017-04-19T07:02:47.141Z,22.43
2017-04-19T07:03:57.581Z,22.28
2017-04-19T07:05:07.942Z,22.36
2017-04-19T07:06:18.203Z,22.3
2017-04-19T07:07:28.275Z,22.22
2017-04-19T07:08:38.730Z,22.15
2017-04-19T07:09:49.063Z,22.24
2017-04-19T07:10:58.985Z,22.2
2017-04-19T07:12:08.903Z,22.09
2017-04-19T07:13:18.694Z,22.06
2017-04-19T07:14:29.267Z,22.02
2017-04-19T07:15:38.881Z,21.99
2017-04-19T07:16:48.498Z,21.94
2017-04-19T07:17:58.411Z,21.99
2017-04-19T07:19:08.319Z,21.86
2017-04-19T07:20:18.597Z,21.86
2017-04-19T07:21:28.213Z,22
2017-04-19T07:22:38.141Z,21.91
2017-04-19T07:23:48.386Z,21.99
2017-04-19T07:24:58.373Z,21.99
2017-04-19T07:26:08.982Z,21.91
2017-04-19T07:27:18.775Z,21.96
2017-04-19T07:28:28.758Z,21.86
2017-04-19T07:29:38.672Z,21.86
2017-04-19T07:30:48.910Z,21.79
2017-04-19T07:31:59.111Z,21.88
2017-04-19T07:33:09.331Z,21.84
2017-04-19T07:34:19.550Z,21.86
2017-04-19T07:35:29.475Z,21.92
2017-04-19T07:36:39.406Z,22
2017-04-19T07:37:49.725Z,22.45
2017-04-19T07:38:59.978Z,22.95
2017-04-19T07:40:09.655Z,23.54
2017-04-19T07:41:19.914Z,24.09
2017-04-19T07:42:30.153Z,24.5
2017-04-19T07:43:40.523Z,24.87
2017-04-19T07:44:50.161Z,25.14
2017-04-19T07:46:00.090Z,25.35
2017-04-19T07:47:09.704Z,25.65
2017-04-19T07:48:19.705Z,25.95
2017-04-19T07:49:29.320Z,26.26
2017-04-19T07:50:39.567Z,26.58
2017-04-19T07:51:49.803Z,26.75
2017-04-19T07:52:59.727Z,26.87
2017-04-19T07:54:09.721Z,26.92
2017-04-19T07:55:20.112Z,26.87
2017-04-19T07:56:29.735Z,26.85
2017-04-19T07:57:39.652Z,26.95
2017-04-19T07:58:50.126Z,27.12
2017-04-19T08:00:00.061Z,27.13
2017-04-19T08:01:09.735Z,27.25
2017-04-19T08:02:19.664Z,27.36
2017-04-19T08:03:29.905Z,27.28
2017-04-19T08:04:39.977Z,27.18
2017-04-19T08:05:50.252Z,26.99
2017-04-19T08:07:00.634Z,26.77
2017-04-19T08:08:10.256Z,26.62
2017-04-19T08:09:20.476Z,26.39
2017-04-19T08:10:29.814Z,26.09
2017-04-19T08:11:39.423Z,25.99
2017-04-19T08:12:49.502Z,25.83
2017-04-19T08:13:59.757Z,25.62
2017-04-19T08:15:09.376Z,25.5
2017-04-19T08:16:19.327Z,25.35
2017-04-19T08:17:28.967Z,25.23
2017-04-19T08:18:39.143Z,25.2
2017-04-19T08:19:49.362Z,25.08
2017-04-19T08:20:58.968Z,24.81
2017-04-19T08:22:08.885Z,24.81
2017-04-19T08:23:18.567Z,24.69
2017-04-19T08:24:29.185Z,24.53
2017-04-19T08:25:38.816Z,24.45
2017-04-19T08:26:48.761Z,24.42
2017-04-19T08:27:58.407Z,24.25
2017-04-19T08:29:08.074Z,24.2
2017-04-19T08:30:17.639Z,24.03
2017-04-19T08:31:27.888Z,23.94
2017-04-19T08:32:37.818Z,23.94
2017-04-19T08:33:47.758Z,23.83
2017-04-19T08:34:57.682Z,23.72
2017-04-19T08:36:07.859Z,23.78
2017-04-19T08:37:17.542Z,23.68
2017-04-19T08:38:27.212Z,23.55
2017-04-19T08:39:37.127Z,23.53
2017-04-19T08:40:46.738Z,23.46
2017-04-19T08:41:57.117Z,23.36
2017-04-19T08:43:06.728Z,23.38
2017-04-19T08:44:16.962Z,23.31
2017-04-19T08:45:26.649Z,23.31
2017-04-19T08:46:36.350Z,23.1
2017-04-19T08:47:46.563Z,23.12
2017-04-19T08:48:56.180Z,23.07
2017-04-19T08:50:06.406Z,23.04
2017-04-19T08:51:16.023Z,22.97
2017-04-19T08:52:26.313Z,22.97
2017-04-19T08:53:35.551Z,22.88
2017-04-19T08:54:45.160Z,22.79
2017-04-19T08:55:55.378Z,22.76
2017-04-19T08:57:04.717Z,22.72
2017-04-19T08:58:14.635Z,22.67
2017-04-19T08:59:24.501Z,22.58
2017-04-19T09:00:34.623Z,22.57
2017-04-19T09:01:43.939Z,22.54
2017-04-19T09:02:54.196Z,22.57
2017-04-19T09:04:04.114Z,22.47
2017-04-19T09:05:14.388Z,22.43
2017-04-19T09:06:24.309Z,22.43
2017-04-19T09:07:33.618Z,22.39
2017-04-19T09:08:42.933Z,22.35
2017-04-19T09:09:52.854Z,22.35
2017-04-19T09:11:03.081Z,22.24
2017-04-19T09:12:13.331Z,22.25
2017-04-19T09:13:22.947Z,22.28
2017-04-19T09:14:32.565Z,22.22
2017-04-19T09:15:42.187Z,22.25
2017-04-19T09:16:52.581Z,22.21
2017-04-19T09:18:01.882Z,22.21
2017-04-19T09:19:12.097Z,22.21
2017-04-19T09:20:21.700Z,22.21
2017-04-19T09:21:31.325Z,22.22
2017-04-19T09:22:41.400Z,22.2
2017-04-19T09:23:51.361Z,22.06
2017-04-19T09:25:01.272Z,22.1
2017-04-19T09:26:10.567Z,22.09
2017-04-19T09:27:20.830Z,22.07
2017-04-19T09:28:30.432Z,22.09
2017-04-19T09:29:40.356Z,22.03
2017-04-19T09:30:49.961Z,22
2017-04-19T09:31:59.865Z,21.96
2017-04-19T09:33:09.478Z,21.96
2017-04-19T09:34:18.622Z,21.96
2017-04-19T09:35:28.571Z,22
2017-04-19T09:36:38.506Z,21.96
2017-04-19T09:37:47.816Z,21.99
2017-04-19T09:38:57.452Z,21.96
2017-04-19T09:40:07.369Z,22
2017-04-19T09:41:17.302Z,22.03
2017-04-19T09:42:26.936Z,21.99
2017-04-19T09:43:36.530Z,21.92
2017-04-19T09:44:46.748Z,21.98
2017-04-19T09:45:57.220Z,21.9
2017-04-19T09:47:06.831Z,21.92
2017-04-19T09:48:17.056Z,21.86
2017-04-19T09:49:27.322Z,21.82
2017-04-19T09:50:37.560Z,21.88
2017-04-19T09:51:47.104Z,21.88
2017-04-19T09:52:56.724Z,21.88
2017-04-19T09:54:06.633Z,21.84
2017-04-19T09:55:16.573Z,21.72
2017-04-19T09:56:26.377Z,21.86
2017-04-19T09:57:37.040Z,21.8
2017-04-19T09:58:46.679Z,21.84
2017-04-19T09:59:56.298Z,21.77
2017-04-19T10:01:05.922Z,21.82
2017-04-19T10:02:15.556Z,21.82
2017-04-19T10:03:25.821Z,21.9
2017-04-19T10:04:35.425Z,21.79
2017-04-19T10:05:45.674Z,21.92
2017-04-19T10:06:55.900Z,21.9
2017-04-19T10:08:05.515Z,21.83
2017-04-19T10:09:15.694Z,21.75
2017-04-19T10:10:25.300Z,21.84
2017-04-19T10:11:35.516Z,21.86
2017-04-19T10:12:45.133Z,21.71
2017-04-19T10:13:54.745Z,21.84
2017-04-19T10:15:04.440Z,21.83
2017-04-19T10:16:14.368Z,21.8
2017-04-19T10:17:24.658Z,21.79
2017-04-19T10:18:34.581Z,21.82
2017-04-19T10:19:43.900Z,21.8
2017-04-19T10:20:53.583Z,21.77
2017-04-19T10:22:03.203Z,21.72
2017-04-19T10:23:12.806Z,21.72
2017-04-19T10:24:22.104Z,21.72
2017-04-19T10:25:32.121Z,21.75
2017-04-19T10:26:42.923Z,21.75
2017-04-19T10:27:52.241Z,21.69
2017-04-19T10:29:02.153Z,21.74
2017-04-19T10:30:12.081Z,21.71
2017-04-19T10:31:22.001Z,21.75
2017-04-19T10:32:32.379Z,21.75
2017-04-19T10:33:42.601Z,21.64
2017-04-19T10:34:52.821Z,21.64
2017-04-19T10:36:02.428Z,21.67
2017-04-19T10:37:12.648Z,21.72
2017-04-19T10:38:22.626Z,21.68
2017-04-19T10:39:32.554Z,21.67
2017-04-19T10:40:42.792Z,21.71
2017-04-19T10:41:52.708Z,21.74
2017-04-19T10:43:02.930Z,21.74
2017-04-19T10:44:13.311Z,21.74
2017-04-19T10:45:22.604Z,21.64
2017-04-19T10:46:32.837Z,21.74
2017-04-19T10:47:42.753Z,21.65
2017-04-19T10:48:52.359Z,21.62
2017-04-19T10:50:02.431Z,21.69
2017-04-19T10:51:11.761Z,21.71
2017-04-19T10:52:22.102Z,21.77
2017-04-19T10:53:32.323Z,21.74
2017-04-19T10:54:41.949Z,21.72
2017-04-19T10:55:52.015Z,21.69
2017-04-19T10:57:01.629Z,21.72
2017-04-19T10:58:11.549Z,21.72
2017-04-19T10:59:21.776Z,21.72
2017-04-19T11:00:32.003Z,21.72
2017-04-19T11:01:42.387Z,21.71
2017-04-19T11:02:52.625Z,21.74
2017-04-19T11:04:01.923Z,21.72
2017-04-19T11:05:11.855Z,21.77
2017-04-19T11:06:22.069Z,21.77
2017-04-19T11:07:31.826Z,21.83
2017-04-19T11:08:41.164Z,21.77
2017-04-19T11:09:50.760Z,21.83
2017-04-19T11:11:00.974Z,21.79
2017-04-19T11:12:11.193Z,21.8
2017-04-19T11:13:21.702Z,21.77
2017-04-19T11:14:31.920Z,21.79
2017-04-19T11:15:41.840Z,21.74
2017-04-19T11:16:51.144Z,21.71
2017-04-19T11:18:00.448Z,21.74
2017-04-19T11:19:11.012Z,21.72
2017-04-19T11:20:20.627Z,21.86
2017-04-19T11:21:30.544Z,21.77
2017-04-19T11:22:41.093Z,21.77
2017-04-19T11:23:50.924Z,21.79
2017-04-19T11:25:01.104Z,21.72
2017-04-19T11:26:10.746Z,21.79
2017-04-19T11:27:20.665Z,21.83
2017-04-19T11:28:29.986Z,21.72
2017-04-19T11:29:40.230Z,21.79
2017-04-19T11:30:50.090Z,21.69
2017-04-19T11:32:00.010Z,21.74
2017-04-19T11:33:09.918Z,21.71
2017-04-19T11:34:19.532Z,21.71
2017-04-19T11:35:29.183Z,21.77
2017-04-19T11:36:39.108Z,21.74
2017-04-19T11:37:49.040Z,21.69
2017-04-19T11:38:58.987Z,21.74
2017-04-19T11:40:08.617Z,21.72
2017-04-19T11:41:18.223Z,21.74
2017-04-19T11:42:27.320Z,21.68
2017-04-19T11:43:37.236Z,21.74
2017-04-19T11:44:46.852Z,21.74
2017-04-19T11:45:56.458Z,21.74
2017-04-19T11:47:06.381Z,21.72
2017-04-19T11:48:16.316Z,21.62
2017-04-19T11:49:25.919Z,21.69
2017-04-19T11:50:35.521Z,21.61
2017-04-19T11:51:45.530Z,21.61
2017-04-19T11:52:55.604Z,21.62
2017-04-19T11:54:05.647Z,21.68
2017-04-19T11:55:15.569Z,21.58
2017-04-19T11:56:25.486Z,21.62
2017-04-19T11:57:35.390Z,21.62
2017-04-19T11:58:44.989Z,21.67
2017-04-19T11:59:55.257Z,21.62
2017-04-19T12:01:04.549Z,21.65
2017-04-19T12:02:14.779Z,21.65
2017-04-19T12:03:24.701Z,21.67
2017-04-19T12:04:34.614Z,21.68
2017-04-19T12:05:44.593Z,21.72
2017-04-19T12:06:53.891Z,21.65
2017-04-19T12:08:04.116Z,21.65
2017-04-19T12:09:13.716Z,21.71
2017-04-19T12:10:23.635Z,21.67
2017-04-19T12:11:33.559Z,21.65
2017-04-19T12:12:43.493Z,21.67
2017-04-19T12:13:53.418Z,21.64
2017-04-19T12:15:03.015Z,21.67
2017-04-19T12:16:11.719Z,21.67
2017-04-19T12:17:22.246Z,21.69
2017-04-19T12:18:32.175Z,21.74
2017-04-19T12:19:42.410Z,21.64
2017-04-19T12:20:52.634Z,21.75
2017-04-19T12:22:02.857Z,21.72
2017-04-19T12:23:13.040Z,21.64
2017-04-19T12:24:22.335Z,21.65
2017-04-19T12:25:31.636Z,21.69
2017-04-19T12:26:40.945Z,21.67
2017-04-19T12:27:50.884Z,21.69
2017-04-19T12:29:01.437Z,21.65
2017-04-19T12:30:11.653Z,21.67
2017-04-19T12:31:20.963Z,21.65
2017-04-19T12:32:30.874Z,21.65
2017-04-19T12:33:40.791Z,21.67
2017-04-19T12:34:50.645Z,21.62
2017-04-19T12:36:00.566Z,21.67
2017-04-19T12:37:10.488Z,21.68
2017-04-19T12:38:19.787Z,21.67
2017-04-19T12:39:29.706Z,21.64
2017-04-19T12:40:39.167Z,21.67
2017-04-19T12:41:48.464Z,21.77
2017-04-19T12:42:58.070Z,21.74
2017-04-19T12:44:07.685Z,21.69
2017-04-19T12:45:17.598Z,21.77
2017-04-19T12:46:27.037Z,21.67
2017-04-19T12:47:36.633Z,21.59
2017-04-19T12:48:46.570Z,21.64
2017-04-19T12:49:55.868Z,21.68
2017-04-19T12:51:05.712Z,21.79
2017-04-19T12:52:15.486Z,21.68
2017-04-19T12:53:25.302Z,21.75
2017-04-19T12:54:35.214Z,21.75
2017-04-19T12:55:44.849Z,21.74
2017-04-19T12:56:54.765Z,21.72
2017-04-19T12:58:04.981Z,21.75
2017-04-19T12:59:14.601Z,21.67
2017-04-19T13:00:23.918Z,21.71
2017-04-19T13:01:33.844Z,21.75
2017-04-19T13:02:43.512Z,21.75
2017-04-19T13:03:53.545Z,21.77
2017-04-19T13:05:03.478Z,21.69
2017-04-19T13:06:13.141Z,21.79
2017-04-19T13:07:22.761Z,21.74
2017-04-19T13:08:32.373Z,21.83
2017-04-19T13:09:41.795Z,21.77
2017-04-19T13:10:52.012Z,21.77
2017-04-19T13:12:01.919Z,21.8
2017-04-19T13:13:11.212Z,21.75
2017-04-19T13:14:20.510Z,21.74
2017-04-19T13:15:30.578Z,21.74
2017-04-19T13:16:40.194Z,21.71
2017-04-19T13:17:49.523Z,21.74
2017-04-19T13:18:58.838Z,21.82
2017-04-19T13:20:08.460Z,21.75
2017-04-19T13:21:17.997Z,21.71
2017-04-19T13:22:27.909Z,21.79
2017-04-19T13:23:37.511Z,21.67
2017-04-19T13:24:47.447Z,21.72
2017-04-19T13:25:57.525Z,21.72
2017-04-19T13:27:07.689Z,21.72
2017-04-19T13:28:17.612Z,21.65
2017-04-19T13:29:26.904Z,21.68
2017-04-19T13:30:37.135Z,21.64
2017-04-19T13:31:47.033Z,21.68
2017-04-19T13:32:57.211Z,21.65
2017-04-19T13:34:07.455Z,21.65
2017-04-19T13:35:16.750Z,21.61
2017-04-19T13:36:26.050Z,21.64
2017-04-19T13:37:35.972Z,21.65
2017-04-19T13:38:45.115Z,21.62
2017-04-19T13:39:55.338Z,21.67
2017-04-19T13:41:05.242Z,21.68
2017-04-19T13:42:14.851Z,21.68
2017-04-19T13:43:24.761Z,21.67
2017-04-19T13:44:35.079Z,21.75
2017-04-19T13:45:44.573Z,21.71
2017-04-19T13:46:53.692Z,21.69
2017-04-19T13:48:03.375Z,21.67
2017-04-19T13:49:12.471Z,21.72
2017-04-19T13:50:22.655Z,21.65
2017-04-19T13:51:32.106Z,21.68
2017-04-19T13:52:42.094Z,21.72
2017-04-19T13:53:51.760Z,21.71
2017-04-19T13:55:01.519Z,21.69
2017-04-19T13:56:11.722Z,21.59
2017-04-19T13:57:21.377Z,21.68
2017-04-19T13:58:31.394Z,21.72
2017-04-19T13:59:41.084Z,21.68
2017-04-19T14:00:51.446Z,21.65
2017-04-19T14:02:01.197Z,21.65
2017-04-19T14:03:11.427Z,21.69
2017-04-19T14:04:21.344Z,21.61
2017-04-19T14:05:31.255Z,21.53
2017-04-19T14:06:41.196Z,21.59
2017-04-19T14:07:51.366Z,21.53
2017-04-19T14:09:01.596Z,21.61
2017-04-19T14:10:11.518Z,21.53
2017-04-19T14:11:21.124Z,21.58
2017-04-19T14:12:31.067Z,21.54
2017-04-19T14:13:41.358Z,21.56
2017-04-19T14:14:50.979Z,21.54
2017-04-19T14:16:00.588Z,21.58
2017-04-19T14:17:09.592Z,21.53
2017-04-19T14:18:19.214Z,21.62
2017-04-19T14:19:29.480Z,21.65
2017-04-19T14:20:39.387Z,21.64
2017-04-19T14:21:49.314Z,21.68
2017-04-19T14:22:59.252Z,21.61
2017-04-19T14:24:09.640Z,21.65
2017-04-19T14:25:19.654Z,21.69
2017-04-19T14:26:29.394Z,21.65
2017-04-19T14:27:39.333Z,21.69
2017-04-19T14:28:48.954Z,21.69
2017-04-19T14:29:58.582Z,21.67
2017-04-19T14:31:08.491Z,21.64
2017-04-19T14:32:18.104Z,21.59
2017-04-19T14:33:28.333Z,21.64
2017-04-19T14:34:38.272Z,21.62
2017-04-19T14:35:48.565Z,21.62
2017-04-19T14:36:59.101Z,21.68
2017-04-19T14:38:08.421Z,21.62
2017-04-19T14:39:18.346Z,21.62
2017-04-19T14:40:28.267Z,21.64
2017-04-19T14:41:38.502Z,21.62
2017-04-19T14:42:48.456Z,21.62
2017-04-19T14:43:58.685Z,21.61
2017-04-19T14:45:08.603Z,21.68
2017-04-19T14:46:18.525Z,21.64
2017-04-19T14:47:28.752Z,21.64
2017-04-19T14:48:39.331Z,21.65
2017-04-19T14:49:49.255Z,21.71
2017-04-19T14:50:59.225Z,21.59
2017-04-19T14:52:09.190Z,21.61
2017-04-19T14:53:19.120Z,21.61
2017-04-19T14:54:30.053Z,21.59
2017-04-19T14:55:39.659Z,21.64
2017-04-19T14:56:49.660Z,21.59
2017-04-19T14:57:59.884Z,21.62
2017-04-19T14:59:09.498Z,21.52
2017-04-19T15:00:20.015Z,21.54
2017-04-19T15:01:29.939Z,21.61
2017-04-19T15:02:40.156Z,21.52
2017-04-19T15:03:49.771Z,21.49
2017-04-19T15:04:59.690Z,21.59